sensor_id;sensor_type;location;lat;lon;timestamp;temperature;humidity
24454;DHT22;12627;50.860;5.714;2023-07-30T00:00:15;17.00;99.90
24454;DHT22;12627;50.860;5.714;2023-07-30T00:02:42;17.00;99.90
24454;DHT22;12627;50.860;5.714;2023-07-30T00:05:09;17.00;99.90
24454;DHT22;12627;50.860;5.714;2023-07-30T00:07:37;17.00;99.90
24454;DHT22;12627;50.860;5.714;2023-07-30T00:10:05;17.10;99.90
24454;DHT22;12627;50.860;5.714;2023-07-30T00:12:34;17.10;99.90
24454;DHT22;12627;50.860;5.714;2023-07-30T00:15:01;17.30;99.90
24454;DHT22;12627;50.860;5.714;2023-07-30T00:17:28;17.30;99.90
24454;DHT22;12627;50.860;5.714;2023-07-30T00:19:56;17.40;99.90
24454;DHT22;12627;50.860;5.714;2023-07-30T00:22:23;17.40;99.90
24454;DHT22;12627;50.860;5.714;2023-07-30T00:24:50;17.40;99.90
24454;DHT22;12627;50.860;5.714;2023-07-30T00:27:17;17.40;99.90
24454;DHT22;12627;50.860;5.714;2023-07-30T00:29:46;17.40;99.90
24454;DHT22;12627;50.860;5.714;2023-07-30T00:32:13;17.40;99.90
24454;DHT22;12627;50.860;5.714;2023-07-30T00:34:43;17.40;99.90
24454;DHT22;12627;50.860;5.714;2023-07-30T00:37:10;17.40;99.90
24454;DHT22;12627;50.860;5.714;2023-07-30T00:39:37;17.40;99.90
24454;DHT22;12627;50.860;5.714;2023-07-30T00:42:05;17.40;99.90
24454;DHT22;12627;50.860;5.714;2023-07-30T00:44:32;17.30;99.90
24454;DHT22;12627;50.860;5.714;2023-07-30T00:47:01;17.40;99.90
24454;DHT22;12627;50.860;5.714;2023-07-30T00:49:29;17.40;99.90
24454;DHT22;12627;50.860;5.714;2023-07-30T00:51:56;17.40;99.90
24454;DHT22;12627;50.860;5.714;2023-07-30T00:54:25;17.40;99.90
24454;DHT22;12627;50.860;5.714;2023-07-30T00:56:52;17.40;99.90
24454;DHT22;12627;50.860;5.714;2023-07-30T00:59:20;17.30;99.90
24454;DHT22;12627;50.860;5.714;2023-07-30T01:01:47;17.30;99.90
24454;DHT22;12627;50.860;5.714;2023-07-30T01:04:16;17.20;99.90
24454;DHT22;12627;50.860;5.714;2023-07-30T01:06:44;17.30;99.90
24454;DHT22;12627;50.860;5.714;2023-07-30T01:09:11;17.30;99.90
24454;DHT22;12627;50.860;5.714;2023-07-30T01:11:39;17.30;99.90
24454;DHT22;12627;50.860;5.714;2023-07-30T01:14:09;17.30;99.90
24454;DHT22;12627;50.860;5.714;2023-07-30T01:16:36;17.30;99.90
24454;DHT22;12627;50.860;5.714;2023-07-30T01:19:04;17.30;99.90
24454;DHT22;12627;50.860;5.714;2023-07-30T01:21:34;17.30;99.90
24454;DHT22;12627;50.860;5.714;2023-07-30T01:24:01;17.30;99.90
24454;DHT22;12627;50.860;5.714;2023-07-30T01:26:32;17.30;99.90
24454;DHT22;12627;50.860;5.714;2023-07-30T01:29:02;17.30;99.90
24454;DHT22;12627;50.860;5.714;2023-07-30T01:31:31;17.30;99.90
24454;DHT22;12627;50.860;5.714;2023-07-30T01:34:01;17.30;99.90
24454;DHT22;12627;50.860;5.714;2023-07-30T01:36:31;17.30;99.90
24454;DHT22;12627;50.860;5.714;2023-07-30T01:39:00;17.20;99.90
24454;DHT22;12627;50.860;5.714;2023-07-30T01:41:28;17.30;99.90
24454;DHT22;12627;50.860;5.714;2023-07-30T01:43:56;17.30;99.90
24454;DHT22;12627;50.860;5.714;2023-07-30T01:46:23;17.30;99.90
24454;DHT22;12627;50.860;5.714;2023-07-30T01:48:50;17.30;99.90
24454;DHT22;12627;50.860;5.714;2023-07-30T01:51:17;17.20;99.90
24454;DHT22;12627;50.860;5.714;2023-07-30T01:53:44;17.30;99.90
24454;DHT22;12627;50.860;5.714;2023-07-30T01:56:13;17.30;99.90
24454;DHT22;12627;50.860;5.714;2023-07-30T01:58:40;17.30;99.90
24454;DHT22;12627;50.860;5.714;2023-07-30T02:01:07;17.30;99.90
24454;DHT22;12627;50.860;5.714;2023-07-30T02:03:35;17.00;99.90
24454;DHT22;12627;50.860;5.714;2023-07-30T02:06:02;16.40;99.90
24454;DHT22;12627;50.860;5.714;2023-07-30T02:08:29;15.80;99.90
24454;DHT22;12627;50.860;5.714;2023-07-30T02:10:57;15.60;99.90
24454;DHT22;12627;50.860;5.714;2023-07-30T02:13:26;15.40;99.90
24454;DHT22;12627;50.860;5.714;2023-07-30T02:15:53;15.50;99.90
24454;DHT22;12627;50.860;5.714;2023-07-30T02:18:20;15.60;99.90
24454;DHT22;12627;50.860;5.714;2023-07-30T02:20:48;15.80;99.90
24454;DHT22;12627;50.860;5.714;2023-07-30T02:23:15;15.80;99.90
24454;DHT22;12627;50.860;5.714;2023-07-30T02:25:43;15.90;99.90
24454;DHT22;12627;50.860;5.714;2023-07-30T02:28:10;15.90;99.90
24454;DHT22;12627;50.860;5.714;2023-07-30T02:30:39;15.90;99.90
24454;DHT22;12627;50.860;5.714;2023-07-30T02:33:06;16.00;99.90
24454;DHT22;12627;50.860;5.714;2023-07-30T02:35:33;16.00;99.90
24454;DHT22;12627;50.860;5.714;2023-07-30T02:38:01;16.30;99.90
24454;DHT22;12627;50.860;5.714;2023-07-30T02:40:28;16.20;99.90
24454;DHT22;12627;50.860;5.714;2023-07-30T02:42:56;16.00;99.90
24454;DHT22;12627;50.860;5.714;2023-07-30T02:45:24;16.00;99.90
24454;DHT22;12627;50.860;5.714;2023-07-30T02:47:52;15.90;99.90
24454;DHT22;12627;50.860;5.714;2023-07-30T02:50:20;15.90;99.90
24454;DHT22;12627;50.860;5.714;2023-07-30T02:52:47;15.80;99.90
24454;DHT22;12627;50.860;5.714;2023-07-30T02:55:14;15.70;99.90
24454;DHT22;12627;50.860;5.714;2023-07-30T02:57:42;15.70;99.90
24454;DHT22;12627;50.860;5.714;2023-07-30T03:00:10;15.70;99.90
24454;DHT22;12627;50.860;5.714;2023-07-30T03:02:37;15.60;99.90
24454;DHT22;12627;50.860;5.714;2023-07-30T03:05:07;15.70;99.90
24454;DHT22;12627;50.860;5.714;2023-07-30T03:07:35;15.60;99.90
24454;DHT22;12627;50.860;5.714;2023-07-30T03:10:02;15.70;99.90
24454;DHT22;12627;50.860;5.714;2023-07-30T03:12:30;15.70;99.90
24454;DHT22;12627;50.860;5.714;2023-07-30T03:14:57;15.70;99.90
24454;DHT22;12627;50.860;5.714;2023-07-30T03:17:25;15.70;99.90
24454;DHT22;12627;50.860;5.714;2023-07-30T03:19:52;15.80;99.90
24454;DHT22;12627;50.860;5.714;2023-07-30T03:22:20;15.80;99.90
24454;DHT22;12627;50.860;5.714;2023-07-30T03:24:48;15.90;99.90
24454;DHT22;12627;50.860;5.714;2023-07-30T03:27:15;15.80;99.90
24454;DHT22;12627;50.860;5.714;2023-07-30T03:29:43;15.90;99.90
24454;DHT22;12627;50.860;5.714;2023-07-30T03:32:10;15.90;99.90
24454;DHT22;12627;50.860;5.714;2023-07-30T03:34:38;15.90;99.90
24454;DHT22;12627;50.860;5.714;2023-07-30T03:37:05;15.80;99.90
24454;DHT22;12627;50.860;5.714;2023-07-30T03:39:34;15.70;99.90
24454;DHT22;12627;50.860;5.714;2023-07-30T03:42:01;15.50;99.90
24454;DHT22;12627;50.860;5.714;2023-07-30T03:44:28;15.30;99.90
24454;DHT22;12627;50.860;5.714;2023-07-30T03:46:55;15.20;99.90
24454;DHT22;12627;50.860;5.714;2023-07-30T03:49:23;15.00;99.90
24454;DHT22;12627;50.860;5.714;2023-07-30T03:51:50;14.90;99.90
24454;DHT22;12627;50.860;5.714;2023-07-30T03:54:18;14.70;99.90
24454;DHT22;12627;50.860;5.714;2023-07-30T03:56:46;14.70;99.90
24454;DHT22;12627;50.860;5.714;2023-07-30T03:59:13;14.60;99.90
24454;DHT22;12627;50.860;5.714;2023-07-30T04:01:41;14.60;99.90
24454;DHT22;12627;50.860;5.714;2023-07-30T04:04:08;14.60;99.90
24454;DHT22;12627;50.860;5.714;2023-07-30T04:06:35;14.50;99.90
24454;DHT22;12627;50.860;5.714;2023-07-30T04:09:03;14.50;99.90
24454;DHT22;12627;50.860;5.714;2023-07-30T04:11:30;14.50;99.90
24454;DHT22;12627;50.860;5.714;2023-07-30T04:13:58;14.50;99.90
24454;DHT22;12627;50.860;5.714;2023-07-30T04:16:26;14.50;99.90
24454;DHT22;12627;50.860;5.714;2023-07-30T04:18:53;14.50;99.90
24454;DHT22;12627;50.860;5.714;2023-07-30T04:21:20;14.50;99.90
24454;DHT22;12627;50.860;5.714;2023-07-30T04:23:47;14.40;99.90
24454;DHT22;12627;50.860;5.714;2023-07-30T04:26:15;14.40;99.90
24454;DHT22;12627;50.860;5.714;2023-07-30T04:28:42;14.40;99.90
24454;DHT22;12627;50.860;5.714;2023-07-30T04:31:11;14.30;99.90
24454;DHT22;12627;50.860;5.714;2023-07-30T04:33:38;14.40;99.90
24454;DHT22;12627;50.860;5.714;2023-07-30T04:36:05;14.30;99.90
24454;DHT22;12627;50.860;5.714;2023-07-30T04:38:33;14.30;99.90
24454;DHT22;12627;50.860;5.714;2023-07-30T04:41:02;14.40;99.90
24454;DHT22;12627;50.860;5.714;2023-07-30T04:43:29;14.50;99.90
24454;DHT22;12627;50.860;5.714;2023-07-30T04:45:56;14.50;99.90
24454;DHT22;12627;50.860;5.714;2023-07-30T04:48:25;14.50;99.90
24454;DHT22;12627;50.860;5.714;2023-07-30T04:50:52;14.50;99.90
24454;DHT22;12627;50.860;5.714;2023-07-30T04:53:19;14.50;99.90
24454;DHT22;12627;50.860;5.714;2023-07-30T04:55:47;14.50;99.90
24454;DHT22;12627;50.860;5.714;2023-07-30T04:58:14;14.60;99.90
24454;DHT22;12627;50.860;5.714;2023-07-30T05:00:41;14.60;99.90
24454;DHT22;12627;50.860;5.714;2023-07-30T05:03:10;14.70;99.90
24454;DHT22;12627;50.860;5.714;2023-07-30T05:05:39;14.70;99.90
24454;DHT22;12627;50.860;5.714;2023-07-30T05:08:06;14.70;99.90
24454;DHT22;12627;50.860;5.714;2023-07-30T05:10:33;14.70;99.90
24454;DHT22;12627;50.860;5.714;2023-07-30T05:13:01;14.80;99.90
24454;DHT22;12627;50.860;5.714;2023-07-30T05:15:28;14.80;99.90
24454;DHT22;12627;50.860;5.714;2023-07-30T05:17:55;14.80;99.90
24454;DHT22;12627;50.860;5.714;2023-07-30T05:20:23;14.80;99.90
24454;DHT22;12627;50.860;5.714;2023-07-30T05:22:51;14.90;99.90
24454;DHT22;12627;50.860;5.714;2023-07-30T05:25:19;14.90;99.90
24454;DHT22;12627;50.860;5.714;2023-07-30T05:27:46;14.90;99.90
24454;DHT22;12627;50.860;5.714;2023-07-30T05:30:13;15.00;99.90
24454;DHT22;12627;50.860;5.714;2023-07-30T05:32:40;15.00;99.90
24454;DHT22;12627;50.860;5.714;2023-07-30T05:35:08;15.10;99.90
24454;DHT22;12627;50.860;5.714;2023-07-30T05:37:35;15.10;99.90
24454;DHT22;12627;50.860;5.714;2023-07-30T05:40:05;15.10;99.90
24454;DHT22;12627;50.860;5.714;2023-07-30T05:42:33;15.20;99.90
24454;DHT22;12627;50.860;5.714;2023-07-30T05:45:00;15.30;99.90
24454;DHT22;12627;50.860;5.714;2023-07-30T05:47:27;15.40;99.90
24454;DHT22;12627;50.860;5.714;2023-07-30T05:49:54;15.50;99.90
24454;DHT22;12627;50.860;5.714;2023-07-30T05:52:21;15.50;99.90
24454;DHT22;12627;50.860;5.714;2023-07-30T05:54:49;15.60;99.90
24454;DHT22;12627;50.860;5.714;2023-07-30T05:57:17;15.60;99.90
24454;DHT22;12627;50.860;5.714;2023-07-30T05:59:44;15.50;99.90
24454;DHT22;12627;50.860;5.714;2023-07-30T06:02:12;15.50;99.90
24454;DHT22;12627;50.860;5.714;2023-07-30T06:04:40;15.50;99.90
24454;DHT22;12627;50.860;5.714;2023-07-30T06:07:07;15.50;99.90
24454;DHT22;12627;50.860;5.714;2023-07-30T06:09:34;15.40;99.90
24454;DHT22;12627;50.860;5.714;2023-07-30T06:12:02;15.50;99.90
24454;DHT22;12627;50.860;5.714;2023-07-30T06:14:31;15.50;99.90
24454;DHT22;12627;50.860;5.714;2023-07-30T06:16:58;15.60;99.90
24454;DHT22;12627;50.860;5.714;2023-07-30T06:19:25;15.60;99.90
24454;DHT22;12627;50.860;5.714;2023-07-30T06:21:53;15.80;99.90
24454;DHT22;12627;50.860;5.714;2023-07-30T06:24:20;15.80;99.90
24454;DHT22;12627;50.860;5.714;2023-07-30T06:26:47;15.80;99.90
24454;DHT22;12627;50.860;5.714;2023-07-30T06:29:14;16.00;99.90
24454;DHT22;12627;50.860;5.714;2023-07-30T06:31:43;16.00;99.90
24454;DHT22;12627;50.860;5.714;2023-07-30T06:34:10;16.00;99.90
24454;DHT22;12627;50.860;5.714;2023-07-30T06:36:37;16.00;99.90
24454;DHT22;12627;50.860;5.714;2023-07-30T06:39:05;16.30;99.90
24454;DHT22;12627;50.860;5.714;2023-07-30T06:41:32;16.40;99.90
24454;DHT22;12627;50.860;5.714;2023-07-30T06:43:59;16.40;99.90
24454;DHT22;12627;50.860;5.714;2023-07-30T06:46:26;16.50;99.90
24454;DHT22;12627;50.860;5.714;2023-07-30T06:48:55;16.60;99.90
24454;DHT22;12627;50.860;5.714;2023-07-30T06:51:24;16.40;99.90
24454;DHT22;12627;50.860;5.714;2023-07-30T06:53:52;16.40;99.90
24454;DHT22;12627;50.860;5.714;2023-07-30T06:56:19;16.30;99.90
24454;DHT22;12627;50.860;5.714;2023-07-30T06:58:46;16.60;99.90
24454;DHT22;12627;50.860;5.714;2023-07-30T07:01:13;16.60;99.90
24454;DHT22;12627;50.860;5.714;2023-07-30T07:03:41;16.60;99.90
24454;DHT22;12627;50.860;5.714;2023-07-30T07:06:10;16.60;99.90
24454;DHT22;12627;50.860;5.714;2023-07-30T07:08:37;16.80;99.90
24454;DHT22;12627;50.860;5.714;2023-07-30T07:11:04;16.90;99.90
24454;DHT22;12627;50.860;5.714;2023-07-30T07:13:32;17.20;99.90
24454;DHT22;12627;50.860;5.714;2023-07-30T07:15:59;17.10;99.90
24454;DHT22;12627;50.860;5.714;2023-07-30T07:18:26;17.20;99.90
24454;DHT22;12627;50.860;5.714;2023-07-30T07:20:54;17.20;99.90
24454;DHT22;12627;50.860;5.714;2023-07-30T07:23:22;17.30;99.90
24454;DHT22;12627;50.860;5.714;2023-07-30T07:25:50;17.20;99.90
24454;DHT22;12627;50.860;5.714;2023-07-30T07:28:18;17.40;99.90
24454;DHT22;12627;50.860;5.714;2023-07-30T07:30:46;17.50;99.90
24454;DHT22;12627;50.860;5.714;2023-07-30T07:33:13;17.20;99.90
24454;DHT22;12627;50.860;5.714;2023-07-30T07:35:41;17.00;99.90
24454;DHT22;12627;50.860;5.714;2023-07-30T07:38:08;17.00;99.90
24454;DHT22;12627;50.860;5.714;2023-07-30T07:40:40;17.10;99.90
24454;DHT22;12627;50.860;5.714;2023-07-30T07:43:07;17.10;99.90
24454;DHT22;12627;50.860;5.714;2023-07-30T07:45:35;16.90;99.90
24454;DHT22;12627;50.860;5.714;2023-07-30T07:48:02;17.30;99.90
24454;DHT22;12627;50.860;5.714;2023-07-30T07:50:29;17.80;99.90
24454;DHT22;12627;50.860;5.714;2023-07-30T07:52:56;18.30;99.90
24454;DHT22;12627;50.860;5.714;2023-07-30T07:55:23;19.30;99.90
24454;DHT22;12627;50.860;5.714;2023-07-30T07:57:52;19.10;99.90
24454;DHT22;12627;50.860;5.714;2023-07-30T08:00:20;18.60;99.90
24454;DHT22;12627;50.860;5.714;2023-07-30T08:02:47;19.40;99.90
24454;DHT22;12627;50.860;5.714;2023-07-30T08:05:14;19.60;99.90
24454;DHT22;12627;50.860;5.714;2023-07-30T08:07:43;19.60;99.90
24454;DHT22;12627;50.860;5.714;2023-07-30T08:10:11;20.70;99.90
24454;DHT22;12627;50.860;5.714;2023-07-30T08:12:38;20.70;99.90
24454;DHT22;12627;50.860;5.714;2023-07-30T08:15:08;20.90;99.90
24454;DHT22;12627;50.860;5.714;2023-07-30T08:17:35;19.90;99.90
24454;DHT22;12627;50.860;5.714;2023-07-30T08:20:02;19.40;99.90
24454;DHT22;12627;50.860;5.714;2023-07-30T08:22:30;20.00;99.90
24454;DHT22;12627;50.860;5.714;2023-07-30T08:24:57;19.00;99.90
24454;DHT22;12627;50.860;5.714;2023-07-30T08:27:25;19.40;99.90
24454;DHT22;12627;50.860;5.714;2023-07-30T08:29:52;19.30;99.90
24454;DHT22;12627;50.860;5.714;2023-07-30T08:32:21;19.70;99.90
24454;DHT22;12627;50.860;5.714;2023-07-30T08:34:48;19.40;99.90
24454;DHT22;12627;50.860;5.714;2023-07-30T08:37:15;20.20;99.90
24454;DHT22;12627;50.860;5.714;2023-07-30T08:39:42;20.70;99.90
24454;DHT22;12627;50.860;5.714;2023-07-30T08:42:10;19.70;99.90
24454;DHT22;12627;50.860;5.714;2023-07-30T08:44:37;19.90;99.90
24454;DHT22;12627;50.860;5.714;2023-07-30T08:47:04;19.20;99.90
24454;DHT22;12627;50.860;5.714;2023-07-30T08:49:33;19.10;99.90
24454;DHT22;12627;50.860;5.714;2023-07-30T08:52:02;19.70;99.90
24454;DHT22;12627;50.860;5.714;2023-07-30T08:54:31;20.90;99.90
24454;DHT22;12627;50.860;5.714;2023-07-30T08:56:58;21.40;99.90
24454;DHT22;12627;50.860;5.714;2023-07-30T08:59:27;21.80;99.90
24454;DHT22;12627;50.860;5.714;2023-07-30T09:01:58;21.80;99.90
24454;DHT22;12627;50.860;5.714;2023-07-30T09:04:30;21.00;99.90
24454;DHT22;12627;50.860;5.714;2023-07-30T09:07:02;20.90;99.90
24454;DHT22;12627;50.860;5.714;2023-07-30T09:09:29;21.40;99.90
24454;DHT22;12627;50.860;5.714;2023-07-30T09:11:56;21.50;99.90
24454;DHT22;12627;50.860;5.714;2023-07-30T09:14:26;20.60;99.90
24454;DHT22;12627;50.860;5.714;2023-07-30T09:16:57;21.00;99.90
24454;DHT22;12627;50.860;5.714;2023-07-30T09:19:24;20.70;99.90
24454;DHT22;12627;50.860;5.714;2023-07-30T09:21:52;19.90;99.90
24454;DHT22;12627;50.860;5.714;2023-07-30T09:24:22;21.30;99.90
24454;DHT22;12627;50.860;5.714;2023-07-30T09:26:49;21.90;99.90
24454;DHT22;12627;50.860;5.714;2023-07-30T09:29:17;21.90;99.90
24454;DHT22;12627;50.860;5.714;2023-07-30T09:31:48;21.40;99.90
24454;DHT22;12627;50.860;5.714;2023-07-30T09:34:17;21.90;99.90
24454;DHT22;12627;50.860;5.714;2023-07-30T09:36:46;22.40;99.90
24454;DHT22;12627;50.860;5.714;2023-07-30T09:39:17;22.60;99.90
24454;DHT22;12627;50.860;5.714;2023-07-30T09:41:46;21.40;99.90
24454;DHT22;12627;50.860;5.714;2023-07-30T09:44:16;20.80;99.90
24454;DHT22;12627;50.860;5.714;2023-07-30T09:46:45;20.70;99.90
24454;DHT22;12627;50.860;5.714;2023-07-30T09:49:12;20.20;99.90
24454;DHT22;12627;50.860;5.714;2023-07-30T09:51:40;20.30;99.90
24454;DHT22;12627;50.860;5.714;2023-07-30T09:54:08;21.20;99.90
24454;DHT22;12627;50.860;5.714;2023-07-30T09:56:36;20.90;99.90
24454;DHT22;12627;50.860;5.714;2023-07-30T09:59:06;20.60;99.90
24454;DHT22;12627;50.860;5.714;2023-07-30T10:01:37;20.20;99.90
24454;DHT22;12627;50.860;5.714;2023-07-30T10:04:08;20.50;99.90
24454;DHT22;12627;50.860;5.714;2023-07-30T10:06:37;20.40;99.90
24454;DHT22;12627;50.860;5.714;2023-07-30T10:09:07;20.00;99.90
24454;DHT22;12627;50.860;5.714;2023-07-30T10:11:37;20.00;99.90
24454;DHT22;12627;50.860;5.714;2023-07-30T10:14:06;19.90;99.90
24454;DHT22;12627;50.860;5.714;2023-07-30T10:16:34;19.80;99.90
24454;DHT22;12627;50.860;5.714;2023-07-30T10:19:02;19.60;99.90
24454;DHT22;12627;50.860;5.714;2023-07-30T10:21:32;19.60;99.90
24454;DHT22;12627;50.860;5.714;2023-07-30T10:24:01;20.30;99.90
24454;DHT22;12627;50.860;5.714;2023-07-30T10:26:30;20.90;99.90
24454;DHT22;12627;50.860;5.714;2023-07-30T10:29:12;21.20;71.90
24454;DHT22;12627;50.860;5.714;2023-07-30T10:31:41;21.00;99.90
24454;DHT22;12627;50.860;5.714;2023-07-30T10:34:09;21.00;1.00
24454;DHT22;12627;50.860;5.714;2023-07-30T10:36:42;20.70;1.00
24454;DHT22;12627;50.860;5.714;2023-07-30T10:39:15;20.20;1.00
